createdAt,value
2022-12-09T00:04:36.735Z,62.16
2022-12-09T00:09:40.308Z,62.34
2022-12-09T00:14:42.368Z,62.97
2022-12-09T00:19:44.344Z,64.20
2022-12-09T00:24:47.626Z,66.43
2022-12-09T00:29:49.364Z,66.49
2022-12-09T00:34:51.314Z,67.29
2022-12-09T00:39:54.576Z,68.50
2022-12-09T00:44:56.377Z,69.74
2022-12-09T00:49:58.327Z,70.48
2022-12-09T00:55:02.775Z,70.02
2022-12-09T01:00:06.265Z,69.11
2022-12-09T01:05:09.372Z,69.06
2022-12-09T01:10:13.344Z,69.25
2022-12-09T01:15:15.414Z,68.00
2022-12-09T01:20:17.272Z,68.87
2022-12-09T01:25:20.483Z,68.34
2022-12-09T01:30:22.564Z,67.67
2022-12-09T01:35:24.924Z,67.71
2022-12-09T01:40:28.087Z,67.68
2022-12-09T01:45:41.432Z,67.18
2022-12-09T01:50:46.250Z,68.22
2022-12-09T01:55:50.723Z,67.41
2022-12-09T02:00:53.309Z,66.84
2022-12-09T02:05:56.741Z,67.29
2022-12-09T02:11:06.326Z,67.00
2022-12-09T02:16:16.426Z,65.87
2022-12-09T02:21:19.771Z,65.36
2022-12-09T02:26:29.908Z,65.55
2022-12-09T02:31:43.901Z,65.65
2022-12-09T02:36:53.476Z,66.61
2022-12-09T02:41:55.317Z,67.74
2022-12-09T02:46:57.565Z,69.19
2022-12-09T02:52:01.482Z,69.35
2022-12-09T02:57:06.371Z,68.37
2022-12-09T03:02:15.914Z,67.19
2022-12-09T03:07:24.043Z,65.94
2022-12-09T03:12:25.895Z,65.59
2022-12-09T03:17:29.915Z,66.40
2022-12-09T03:22:34.945Z,66.04
2022-12-09T03:27:38.429Z,65.46
2022-12-09T03:32:40.402Z,65.82
2022-12-09T03:37:43.534Z,65.55
2022-12-09T03:42:47.974Z,65.00
2022-12-09T03:47:49.803Z,64.86
2022-12-09T03:52:54.015Z,65.16
2022-12-09T03:57:57.630Z,64.58
2022-12-09T04:02:59.772Z,64.59
2022-12-09T04:08:03.163Z,64.14
2022-12-09T04:13:05.125Z,64.15
2022-12-09T04:18:07.243Z,64.93
2022-12-09T04:23:10.613Z,65.85
2022-12-09T04:28:12.676Z,65.47
2022-12-09T04:33:14.654Z,65.94
2022-12-09T04:38:17.948Z,66.14
2022-12-09T04:43:19.809Z,66.63
2022-12-09T04:48:21.847Z,66.82
2022-12-09T04:53:25.111Z,66.75
2022-12-09T04:58:26.966Z,66.26
2022-12-09T05:03:29.502Z,66.58
2022-12-09T05:08:33.352Z,65.57
2022-12-09T05:13:35.421Z,66.06
2022-12-09T05:18:37.579Z,65.09
2022-12-09T05:23:41.166Z,64.77
2022-12-09T05:28:43.154Z,64.30
2022-12-09T05:33:45.244Z,63.57
2022-12-09T05:38:49.300Z,63.21
2022-12-09T05:43:51.935Z,63.24
2022-12-09T05:48:54.136Z,63.85
2022-12-09T05:54:00.467Z,63.62
2022-12-09T05:59:02.686Z,63.40
2022-12-09T06:04:05.076Z,63.79
2022-12-09T06:09:11.808Z,63.56
2022-12-09T06:14:14.429Z,63.14
2022-12-09T06:19:16.687Z,62.83
2022-12-09T06:24:20.057Z,63.74
2022-12-09T06:29:21.892Z,64.14
2022-12-09T06:34:24.010Z,64.83
2022-12-09T06:39:27.356Z,66.09
2022-12-09T06:44:29.184Z,66.05
2022-12-09T06:49:31.642Z,65.58
2022-12-09T06:54:35.291Z,64.54
2022-12-09T06:59:37.532Z,64.91
2022-12-09T07:04:39.647Z,65.47
2022-12-09T07:09:42.927Z,65.50
2022-12-09T07:14:45.140Z,64.29
2022-12-09T07:19:47.316Z,63.60
2022-12-09T07:24:51.047Z,62.75
2022-12-09T07:29:52.942Z,62.54
2022-12-09T07:34:54.855Z,63.16
2022-12-09T07:39:58.444Z,61.96
2022-12-09T07:45:00.935Z,61.46
2022-12-09T07:50:06.464Z,61.76
2022-12-09T07:55:10.846Z,61.70
2022-12-09T08:00:14.089Z,60.96
2022-12-09T08:05:16.699Z,60.57
2022-12-09T08:10:20.549Z,61.91
2022-12-09T08:15:22.673Z,62.29
2022-12-09T08:20:29.022Z,61.60
2022-12-09T08:25:33.144Z,61.32
2022-12-09T08:30:36.729Z,58.84
2022-12-09T08:35:38.659Z,58.57
2022-12-09T08:40:42.307Z,58.34
2022-12-09T08:45:44.315Z,58.20
2022-12-09T08:50:46.763Z,58.82
2022-12-09T08:55:50.287Z,58.95
2022-12-09T09:00:52.551Z,59.56
2022-12-09T09:05:54.585Z,58.86
2022-12-09T09:10:59.280Z,58.84
2022-12-09T09:16:01.213Z,60.02
2022-12-09T09:21:03.406Z,59.43
2022-12-09T09:26:09.869Z,61.50
2022-12-09T09:31:13.484Z,61.48
2022-12-09T09:36:16.420Z,61.57
2022-12-09T09:41:30.028Z,61.90
2022-12-09T09:46:35.115Z,60.32
2022-12-09T09:51:37.285Z,60.10
2022-12-09T09:56:45.953Z,61.33
2022-12-09T10:01:52.242Z,61.15
2022-12-09T10:07:04.103Z,60.27
2022-12-09T10:12:19.968Z,62.55
2022-12-09T10:17:26.371Z,61.29
2022-12-09T10:22:29.883Z,62.64
2022-12-09T10:27:35.086Z,63.06
2022-12-09T10:32:37.593Z,64.61
2022-12-09T10:37:39.605Z,64.96
2022-12-09T10:43:03.579Z,63.67
2022-12-09T10:48:05.800Z,63.25
2022-12-09T10:53:14.315Z,63.66
2022-12-09T10:58:19.699Z,63.87
2022-12-09T11:03:24.932Z,64.13
2022-12-09T11:08:27.614Z,63.49
2022-12-09T11:13:39.117Z,63.79
2022-12-09T11:18:44.307Z,64.55
2022-12-09T11:23:57.151Z,65.44
2022-12-09T11:29:13.422Z,65.01
2022-12-09T11:34:17.989Z,65.15
2022-12-09T11:39:23.318Z,64.96
2022-12-09T11:44:27.414Z,65.18
2022-12-09T11:49:29.886Z,62.71
2022-12-09T11:54:35.597Z,62.81
2022-12-09T11:59:42.689Z,60.61
2022-12-09T12:04:49.156Z,60.43
2022-12-09T12:09:53.208Z,61.23
2022-12-09T12:14:56.558Z,60.42
2022-12-09T12:19:58.319Z,60.61
2022-12-09T12:25:17.185Z,59.55
2022-12-09T12:30:21.889Z,60.39
2022-12-09T12:35:35.233Z,61.49
2022-12-09T12:40:40.003Z,61.94
2022-12-09T12:46:05.547Z,61.82
2022-12-09T12:51:13.069Z,61.92
2022-12-09T12:56:15.529Z,60.53
2022-12-09T13:01:22.439Z,59.87
2022-12-09T13:06:35.063Z,57.48
2022-12-09T13:11:49.095Z,58.16
2022-12-09T13:16:52.327Z,59.36
2022-12-09T13:21:54.109Z,59.21
2022-12-09T13:26:58.676Z,59.97
2022-12-09T13:32:06.740Z,59.78
2022-12-09T13:37:33.159Z,60.51
2022-12-09T13:42:53.455Z,60.87
2022-12-09T13:47:56.781Z,61.09
2022-12-09T13:52:59.407Z,61.40
2022-12-09T13:58:16.788Z,62.08
2022-12-09T14:03:24.139Z,62.20
2022-12-09T14:08:26.723Z,62.30
2022-12-09T14:13:29.448Z,63.30
2022-12-09T14:18:33.094Z,61.40
2022-12-09T14:23:34.977Z,61.27
2022-12-09T14:28:58.581Z,62.23
2022-12-09T14:34:02.190Z,62.87
2022-12-09T14:39:26.004Z,62.28
2022-12-09T14:44:30.619Z,63.13
2022-12-09T14:49:37.801Z,63.19
2022-12-09T14:54:43.854Z,61.10
2022-12-09T14:59:49.084Z,62.82
2022-12-09T15:04:52.978Z,61.77
2022-12-09T15:09:55.684Z,61.79
2022-12-09T15:14:59.065Z,61.24
2022-12-09T15:20:02.454Z,58.23
2022-12-09T15:25:04.644Z,57.28
2022-12-09T15:30:20.035Z,57.09
2022-12-09T15:35:24.635Z,55.97
2022-12-09T15:40:29.188Z,56.67
2022-12-09T15:45:31.975Z,56.34
2022-12-09T15:50:38.606Z,55.62
2022-12-09T15:55:42.696Z,55.11
2022-12-09T16:00:48.639Z,55.57
2022-12-09T16:05:52.741Z,55.18
2022-12-09T16:10:56.117Z,55.79
2022-12-09T16:15:58.677Z,55.68
2022-12-09T16:21:10.963Z,56.72
2022-12-09T16:26:17.668Z,57.08
2022-12-09T16:31:19.498Z,56.51
2022-12-09T16:36:24.888Z,56.71
2022-12-09T16:41:27.324Z,57.29
2022-12-09T16:46:36.713Z,57.66
2022-12-09T16:51:40.094Z,57.21
2022-12-09T16:56:41.909Z,56.46
2022-12-09T17:01:43.689Z,57.34
2022-12-09T17:06:46.896Z,58.72
2022-12-09T17:11:49.373Z,58.00
2022-12-09T17:16:51.264Z,59.75
2022-12-09T17:21:57.907Z,60.56
2022-12-09T17:26:59.686Z,59.13
2022-12-09T17:32:01.445Z,60.28
2022-12-09T17:37:04.554Z,59.34
2022-12-09T17:42:06.379Z,59.02
2022-12-09T17:47:08.164Z,58.80
2022-12-09T17:52:11.392Z,58.33
2022-12-09T17:57:13.128Z,57.73
2022-12-09T18:02:15.072Z,57.39
2022-12-09T18:07:18.275Z,57.00
2022-12-09T18:12:20.028Z,56.88
2022-12-09T18:17:21.808Z,56.90
2022-12-09T18:22:25.014Z,57.09
2022-12-09T18:27:26.801Z,58.84
2022-12-09T18:32:34.369Z,59.39
2022-12-09T18:37:39.143Z,58.52
2022-12-09T18:42:40.943Z,58.29
2022-12-09T18:47:42.774Z,57.79
2022-12-09T18:52:45.874Z,56.76
2022-12-09T18:57:47.659Z,56.74
2022-12-09T19:02:49.406Z,58.13
2022-12-09T19:07:52.589Z,57.69
2022-12-09T19:12:56.773Z,58.03
2022-12-09T19:17:58.752Z,59.73
2022-12-09T19:23:03.496Z,58.36
2022-12-09T19:28:05.262Z,58.07
2022-12-09T19:33:07.062Z,58.74
2022-12-09T19:38:10.352Z,58.02
2022-12-09T19:43:12.152Z,59.51
2022-12-09T19:48:14.928Z,58.67
2022-12-09T19:53:18.090Z,58.95
2022-12-09T19:58:19.815Z,57.63
2022-12-09T20:03:21.510Z,57.51
2022-12-09T20:08:25.064Z,57.39
2022-12-09T20:13:31.621Z,57.20
2022-12-09T20:18:33.917Z,57.10
2022-12-09T20:23:37.852Z,56.57
2022-12-09T20:28:40.316Z,58.03
2022-12-09T20:33:42.122Z,57.93
2022-12-09T20:38:48.355Z,58.53
2022-12-09T20:43:51.071Z,58.26
2022-12-09T20:48:52.945Z,58.33
2022-12-09T20:53:56.111Z,58.47
2022-12-09T20:58:57.970Z,57.70
2022-12-09T21:04:00.206Z,57.86
2022-12-09T21:09:04.637Z,57.13
2022-12-09T21:14:09.578Z,57.62
2022-12-09T21:19:12.689Z,58.11
2022-12-09T21:24:16.299Z,56.22
2022-12-09T21:29:18.089Z,56.44
2022-12-09T21:34:20.153Z,56.13
2022-12-09T21:39:23.223Z,56.37
2022-12-09T21:44:25.454Z,56.83
2022-12-09T21:49:29.599Z,56.45
2022-12-09T21:54:32.724Z,55.07
2022-12-09T21:59:34.469Z,55.37
2022-12-09T22:04:36.249Z,55.98
2022-12-09T22:09:39.990Z,56.14
2022-12-09T22:14:41.929Z,56.63
2022-12-09T22:19:43.917Z,56.25
2022-12-09T22:24:47.390Z,56.96
2022-12-09T22:29:50.032Z,57.42
2022-12-09T22:34:54.156Z,57.85
2022-12-09T22:39:59.324Z,58.37
2022-12-09T22:45:02.028Z,57.44
2022-12-09T22:50:06.093Z,57.35
2022-12-09T22:55:11.069Z,57.50
2022-12-09T23:00:14.735Z,59.17
2022-12-09T23:05:18.630Z,58.75
2022-12-09T23:10:23.075Z,58.74
2022-12-09T23:15:25.657Z,58.59
2022-12-09T23:20:33.731Z,58.01
2022-12-09T23:25:38.491Z,57.16
2022-12-09T23:30:45.510Z,58.43
2022-12-09T23:35:47.724Z,58.16
2022-12-09T23:40:51.745Z,59.41
2022-12-09T23:45:53.483Z,59.51
2022-12-09T23:50:55.362Z,60.83
2022-12-09T23:55:58.427Z,59.51
